Troy, Ohio
Current Conditions -  °F | °C
As of 12:56 PM on Monday 26 Jan 2015 (Local Time) from KDAY Reporting Station
Clear Clear  
Wind Chill: -15°   Ceiling: Unl
Heat Index: -8°   Visibility: 10mi
Dew Point: -12°   Wind: 13mph
Humidity: 74%   Direction: 330°NNW
Pressure: 29.89"   Gusts: NA
Location:  40.04°N, 84.2°W
Report Text: KDAY 261756Z 33011KT 10SM CLR M08/M12 A2989 RMK AO2 SLP138 4/003 933003 60000 T10781117 11078 21094 50000
Loading
Personal Weather Stations






























Interactive Weather Map New forecast layout! Learn more

10-Day Weather Forecast

Advertisements
Track Severe Weather on mobile